Terminal Aerodrome Forecast
Issued by NWS Louisville, KY

Home | Current Version | Previous Version | Text Only | Print | Product List | Glossary On
Versions: 1 2 3 4 5 6 7 8 9 10 11 12 13 14 15
000
FTUS43 KLMK 020500
TAFSDF
TAF
KSDF 020523Z 0206/0312 14006KT P6SM BKN150
     FM021100 17011KT P6SM BKN050
     FM021400 19016G24KT P6SM -SHRA VCTS BKN040CB
     FM022000 20018G28KT P6SM VCSH BKN035
     FM030200 21016KT P6SM -SHRA VCTS BKN025CB=

USA.gov is the U.S. government's official web portal to all federal, state and local government web resources and services.